Libertytown, Maryland
Current Conditions -  °F | °C
As of 12:50 AM on Friday 28 Nov 2014 (Local Time) from KFDK Reporting Station
Broken Clouds Broken Clouds  
Wind Chill: 28°   Ceiling: 4300
Heat Index: 36°   Visibility: 10mi
Dew Point: 23°   Wind: 10mph
Humidity: 60%   Direction: 290°WNW
Pressure: 30.21"   Gusts: 16mph
Location:  39.48°N, 77.23°W
Report Text: KFDK 280550Z AUTO 29009G14KT 10SM BKN043 02/M05 A3021 RMK AO2
Loading
Personal Weather Stations






























Interactive Weather Map New forecast layout! Learn more

10-Day Weather Forecast

Advertisements
Track Severe Weather on mobile